sensor_id;sensor_type;location;lat;lon;timestamp;pressure;altitude;pressure_sealevel;temperature;humidity
11692;BME280;33659;42.672;23.354;2023-09-19T00:01:33;68994.47;;;19.40;60.65
11692;BME280;33659;42.672;23.354;2023-09-19T00:04:01;69007.06;;;19.55;60.69
11692;BME280;33659;42.672;23.354;2023-09-19T00:06:28;69080.78;;;19.57;60.87
11692;BME280;33659;42.672;23.354;2023-09-19T00:08:57;69075.91;;;19.53;60.98
11692;BME280;33659;42.672;23.354;2023-09-19T00:11:25;69079.63;;;19.54;61.06
11692;BME280;33659;42.672;23.354;2023-09-19T00:13:52;69083.34;;;19.55;61.23
11692;BME280;33659;42.672;23.354;2023-09-19T00:16:19;69077.44;;;19.52;61.13
11692;BME280;33659;42.672;23.354;2023-09-19T00:18:46;69081.78;;;19.56;61.29
11692;BME280;33659;42.672;23.354;2023-09-19T00:21:15;69083.53;;;19.60;60.86
11692;BME280;33659;42.672;23.354;2023-09-19T00:23:42;69088.81;;;19.60;61.12
11692;BME280;33659;42.672;23.354;2023-09-19T00:26:09;69075.91;;;19.53;61.34
11692;BME280;33659;42.672;23.354;2023-09-19T00:28:36;69058.91;;;19.34;61.72
11692;BME280;33659;42.672;23.354;2023-09-19T00:31:02;69043.13;;;19.19;62.14
11692;BME280;33659;42.672;23.354;2023-09-19T00:33:30;69028.41;;;19.06;62.61
11692;BME280;33659;42.672;23.354;2023-09-19T00:35:57;69000.09;;;18.79;62.97
11692;BME280;33659;42.672;23.354;2023-09-19T00:38:25;69027.31;;;19.05;63.17
11692;BME280;33659;42.672;23.354;2023-09-19T00:40:54;68958.56;;;19.07;62.81
11692;BME280;33659;42.672;23.354;2023-09-19T00:43:22;69034.41;;;19.11;63.07
11692;BME280;33659;42.672;23.354;2023-09-19T00:45:52;69043.13;;;19.19;62.96
11692;BME280;33659;42.672;23.354;2023-09-19T00:48:19;69050.22;;;19.26;62.92
11692;BME280;33659;42.672;23.354;2023-09-19T00:50:47;69049.09;;;19.25;63.06
11692;BME280;33659;42.672;23.354;2023-09-19T00:53:17;69046.47;;;19.25;63.13
11692;BME280;33659;42.672;23.354;2023-09-19T00:55:46;69054.00;;;19.30;62.96
11692;BME280;33659;42.672;23.354;2023-09-19T00:58:13;69056.19;;;19.32;62.97
11692;BME280;33659;42.672;23.354;2023-09-19T01:00:40;69054.56;;;19.30;63.25
11692;BME280;33659;42.672;23.354;2023-09-19T01:03:10;69043.75;;;19.23;62.80
11692;BME280;33659;42.672;23.354;2023-09-19T01:05:38;69051.31;;;19.27;62.84
11692;BME280;33659;42.672;23.354;2023-09-19T01:08:05;69031.69;;;19.09;63.29
11692;BME280;33659;42.672;23.354;2023-09-19T01:10:33;68991.50;;;18.74;63.63
11692;BME280;33659;42.672;23.354;2023-09-19T01:13:08;69025.69;;;19.03;63.87
11692;BME280;33659;42.672;23.354;2023-09-19T01:15:47;69024.06;;;19.02;63.70
11692;BME280;33659;42.672;23.354;2023-09-19T01:18:24;69028.41;;;19.06;64.00
11692;BME280;33659;42.672;23.354;2023-09-19T01:21:00;69035.59;;;19.15;63.84
11692;BME280;33659;42.672;23.354;2023-09-19T01:23:41;69049.03;;;19.23;63.63
11692;BME280;33659;42.672;23.354;2023-09-19T01:26:30;69046.94;;;19.23;63.77
11692;BME280;33659;42.672;23.354;2023-09-19T01:29:17;68981.34;;;19.26;63.28
11692;BME280;33659;42.672;23.354;2023-09-19T01:31:57;69035.59;;;19.15;63.72
11692;BME280;33659;42.672;23.354;2023-09-19T01:34:26;69038.84;;;19.18;64.10
11692;BME280;33659;42.672;23.354;2023-09-19T01:36:53;69044.13;;;19.18;63.77
11692;BME280;33659;42.672;23.354;2023-09-19T01:39:20;69033.44;;;19.13;63.93
11692;BME280;33659;42.672;23.354;2023-09-19T01:42:00;69047.38;;;19.21;64.13
11692;BME280;33659;42.672;23.354;2023-09-19T01:44:44;69046.94;;;19.23;63.90
11692;BME280;33659;42.672;23.354;2023-09-19T01:47:19;68977.69;;;19.27;63.64
11692;BME280;33659;42.672;23.354;2023-09-19T01:49:55;69043.13;;;19.19;63.86
11692;BME280;33659;42.672;23.354;2023-09-19T01:52:30;69046.47;;;19.25;63.82
11692;BME280;33659;42.672;23.354;2023-09-19T01:55:02;69046.94;;;19.23;63.73
11692;BME280;33659;42.672;23.354;2023-09-19T01:57:35;69043.13;;;19.19;63.59
11692;BME280;33659;42.672;23.354;2023-09-19T02:00:10;69034.94;;;19.12;63.86
11692;BME280;33659;42.672;23.354;2023-09-19T02:02:42;69030.59;;;19.08;64.10
11692;BME280;33659;42.672;23.354;2023-09-19T02:05:10;69030.59;;;19.08;64.40
11692;BME280;33659;42.672;23.354;2023-09-19T02:07:38;69029.53;;;19.07;64.25
11692;BME280;33659;42.672;23.354;2023-09-19T02:10:06;69030.59;;;19.08;64.27
11692;BME280;33659;42.672;23.354;2023-09-19T02:12:35;69038.22;;;19.15;64.17
11692;BME280;33659;42.672;23.354;2023-09-19T02:15:02;68970.63;;;19.20;64.01
11692;BME280;33659;42.672;23.354;2023-09-19T02:17:32;69035.59;;;19.15;63.97
11692;BME280;33659;42.672;23.354;2023-09-19T02:20:00;69029.53;;;19.07;64.24
11692;BME280;33659;42.672;23.354;2023-09-19T02:22:27;69019.25;;;19.00;64.26
11692;BME280;33659;42.672;23.354;2023-09-19T02:24:55;69003.38;;;18.82;64.91
11692;BME280;33659;42.672;23.354;2023-09-19T02:27:24;68932.66;;;18.87;65.09
11692;BME280;33659;42.672;23.354;2023-09-19T02:29:50;69003.91;;;18.83;64.98
11692;BME280;33659;42.672;23.354;2023-09-19T02:32:17;69001.28;;;18.83;65.36
11692;BME280;33659;42.672;23.354;2023-09-19T02:34:44;68935.72;;;18.85;65.01
11692;BME280;33659;42.672;23.354;2023-09-19T02:37:12;69002.94;;;18.84;65.11
11692;BME280;33659;42.672;23.354;2023-09-19T02:39:41;69006.09;;;18.85;65.19
11692;BME280;33659;42.672;23.354;2023-09-19T02:42:08;68990.31;;;18.70;64.95
11692;BME280;33659;42.672;23.354;2023-09-19T02:44:35;69006.75;;;18.88;64.98
11692;BME280;33659;42.672;23.354;2023-09-19T02:47:03;69011.00;;;18.89;64.94
11692;BME280;33659;42.672;23.354;2023-09-19T02:49:30;69013.28;;;18.94;64.87
11692;BME280;33659;42.672;23.354;2023-09-19T02:51:58;69016.88;;;18.92;64.86
11692;BME280;33659;42.672;23.354;2023-09-19T02:54:26;69021.34;;;18.99;64.60
11692;BME280;33659;42.672;23.354;2023-09-19T02:56:53;69020.34;;;19.01;64.52
11692;BME280;33659;42.672;23.354;2023-09-19T02:59:20;69011.09;;;18.92;64.80
11692;BME280;33659;42.672;23.354;2023-09-19T03:01:47;69003.38;;;18.82;64.93
11692;BME280;33659;42.672;23.354;2023-09-19T03:04:14;68994.13;;;18.74;65.30
11692;BME280;33659;42.672;23.354;2023-09-19T03:06:44;68983.31;;;18.66;65.61
11692;BME280;33659;42.672;23.354;2023-09-19T03:09:11;68984.31;;;18.64;65.64
11692;BME280;33659;42.672;23.354;2023-09-19T03:11:39;68978.31;;;18.59;65.98
11692;BME280;33659;42.672;23.354;2023-09-19T03:14:07;68972.44;;;18.56;66.05
11692;BME280;33659;42.672;23.354;2023-09-19T03:16:35;68970.25;;;18.54;66.03
11692;BME280;33659;42.672;23.354;2023-09-19T03:19:02;68976.16;;;18.57;66.10
11692;BME280;33659;42.672;23.354;2023-09-19T03:21:30;68985.06;;;18.70;65.87
11692;BME280;33659;42.672;23.354;2023-09-19T03:23:57;68999.56;;;18.79;65.59
11692;BME280;33659;42.672;23.354;2023-09-19T03:26:24;69001.75;;;18.81;65.42
11692;BME280;33659;42.672;23.354;2023-09-19T03:28:54;69000.75;;;18.82;64.95
11692;BME280;33659;42.672;23.354;2023-09-19T03:31:21;69000.09;;;18.79;65.17
11692;BME280;33659;42.672;23.354;2023-09-19T03:33:47;68989.31;;;18.72;65.61
11692;BME280;33659;42.672;23.354;2023-09-19T03:36:14;68992.47;;;18.72;65.42
11692;BME280;33659;42.672;23.354;2023-09-19T03:38:41;68975.69;;;18.59;65.94
11692;BME280;33659;42.672;23.354;2023-09-19T03:41:08;68974.59;;;18.58;66.05
11692;BME280;33659;42.672;23.354;2023-09-19T03:43:39;68981.59;;;18.62;65.94
11692;BME280;33659;42.672;23.354;2023-09-19T03:46:07;68983.31;;;18.66;65.76
11692;BME280;33659;42.672;23.354;2023-09-19T03:48:34;68990.41;;;18.73;65.65
11692;BME280;33659;42.672;23.354;2023-09-19T03:51:01;68990.94;;;18.73;65.55
11692;BME280;33659;42.672;23.354;2023-09-19T03:53:28;68993.03;;;18.73;65.46
11692;BME280;33659;42.672;23.354;2023-09-19T03:55:54;68993.13;;;18.75;65.49
11692;BME280;33659;42.672;23.354;2023-09-19T03:58:22;68924.94;;;18.78;65.25
11692;BME280;33659;42.672;23.354;2023-09-19T04:00:49;68924.75;;;18.73;65.43
11692;BME280;33659;42.672;23.354;2023-09-19T04:03:18;68989.31;;;18.72;65.36
11692;BME280;33659;42.672;23.354;2023-09-19T04:05:46;68992.59;;;18.75;65.37
11692;BME280;33659;42.672;23.354;2023-09-19T04:08:13;68997.47;;;18.79;65.33
11692;BME280;33659;42.672;23.354;2023-09-19T04:10:42;68993.13;;;18.75;64.99
11692;BME280;33659;42.672;23.354;2023-09-19T04:13:09;68997.47;;;18.79;65.22
11692;BME280;33659;42.672;23.354;2023-09-19T04:15:36;69000.75;;;18.82;65.17
11692;BME280;33659;42.672;23.354;2023-09-19T04:18:03;69001.84;;;18.83;65.07
11692;BME280;33659;42.672;23.354;2023-09-19T04:20:31;68999.66;;;18.81;64.97
11692;BME280;33659;42.672;23.354;2023-09-19T04:22:58;69001.28;;;18.83;65.14
11692;BME280;33659;42.672;23.354;2023-09-19T04:25:25;69014.81;;;18.93;64.94
11692;BME280;33659;42.672;23.354;2023-09-19T04:27:52;69019.16;;;18.97;64.69
11692;BME280;33659;42.672;23.354;2023-09-19T04:30:18;69014.81;;;18.93;64.78
11692;BME280;33659;42.672;23.354;2023-09-19T04:32:46;69013.72;;;18.92;64.42
11692;BME280;33659;42.672;23.354;2023-09-19T04:35:16;69000.09;;;18.79;64.84
11692;BME280;33659;42.672;23.354;2023-09-19T04:37:44;68990.84;;;18.71;65.25
11692;BME280;33659;42.672;23.354;2023-09-19T04:40:11;68976.78;;;18.60;65.51
11692;BME280;33659;42.672;23.354;2023-09-19T04:42:41;68977.84;;;18.61;65.59
11692;BME280;33659;42.672;23.354;2023-09-19T04:45:08;68975.69;;;18.59;65.78
11692;BME280;33659;42.672;23.354;2023-09-19T04:47:36;68970.25;;;18.54;65.98
11692;BME280;33659;42.672;23.354;2023-09-19T04:50:06;68967.44;;;18.49;66.14
11692;BME280;33659;42.672;23.354;2023-09-19T04:52:39;68961.53;;;18.46;66.35
11692;BME280;33659;42.672;23.354;2023-09-19T04:55:09;68895.47;;;18.48;67.45
11692;BME280;33659;42.672;23.354;2023-09-19T04:57:36;68904.81;;;18.59;67.31
11692;BME280;33659;42.672;23.354;2023-09-19T05:00:05;68992.59;;;18.75;66.57
11692;BME280;33659;42.672;23.354;2023-09-19T05:02:38;69009.38;;;18.88;66.06
11692;BME280;33659;42.672;23.354;2023-09-19T05:05:05;69023.53;;;19.01;65.59
11692;BME280;33659;42.672;23.354;2023-09-19T05:07:33;69033.31;;;19.10;64.46
11692;BME280;33659;42.672;23.354;2023-09-19T05:10:00;69019.91;;;19.03;64.60
11692;BME280;33659;42.672;23.354;2023-09-19T05:12:28;69029.06;;;19.09;64.79
11692;BME280;33659;42.672;23.354;2023-09-19T05:14:55;69043.69;;;19.20;64.27
11692;BME280;33659;42.672;23.354;2023-09-19T05:17:21;69053.56;;;19.32;64.15
11692;BME280;33659;42.672;23.354;2023-09-19T05:19:50;69068.16;;;19.43;64.17
11692;BME280;33659;42.672;23.354;2023-09-19T05:22:17;69072.19;;;19.52;63.80
11692;BME280;33659;42.672;23.354;2023-09-19T05:24:44;69089.44;;;19.63;62.98
11692;BME280;33659;42.672;23.354;2023-09-19T05:27:13;69101.50;;;19.77;62.73
11692;BME280;33659;42.672;23.354;2023-09-19T05:29:43;69109.69;;;19.84;62.39
11692;BME280;33659;42.672;23.354;2023-09-19T05:32:11;69057.63;;;19.99;63.28
11692;BME280;33659;42.672;23.354;2023-09-19T05:34:38;69143.28;;;20.11;61.44
11692;BME280;33659;42.672;23.354;2023-09-19T05:37:05;69131.91;;;20.02;60.76
11692;BME280;33659;42.672;23.354;2023-09-19T05:39:33;69112.31;;;19.84;61.16
11692;BME280;33659;42.672;23.354;2023-09-19T05:42:00;69038.66;;;19.84;61.82
11692;BME280;33659;42.672;23.354;2023-09-19T05:44:27;69117.88;;;19.92;61.84
11692;BME280;33659;42.672;23.354;2023-09-19T05:46:55;69127.13;;;20.00;61.57
11692;BME280;33659;42.672;23.354;2023-09-19T05:49:23;69123.66;;;19.92;61.62
11692;BME280;33659;42.672;23.354;2023-09-19T05:51:50;69118.41;;;19.92;61.26
11692;BME280;33659;42.672;23.354;2023-09-19T05:54:19;69116.22;;;19.90;61.33
11692;BME280;33659;42.672;23.354;2023-09-19T05:56:46;69103.59;;;19.76;61.78
11692;BME280;33659;42.672;23.354;2023-09-19T05:59:14;69091.16;;;19.67;61.58
11692;BME280;33659;42.672;23.354;2023-09-19T06:01:41;69092.16;;;19.65;61.99
11692;BME280;33659;42.672;23.354;2023-09-19T06:04:10;69094.88;;;19.68;62.13
11692;BME280;33659;42.672;23.354;2023-09-19T06:06:36;69036.94;;;19.80;62.24
11692;BME280;33659;42.672;23.354;2023-09-19T06:09:05;69117.75;;;19.89;61.55
11692;BME280;33659;42.672;23.354;2023-09-19T06:11:33;69060.44;;;20.05;61.25
11692;BME280;33659;42.672;23.354;2023-09-19T06:14:00;69131.91;;;20.02;61.21
11692;BME280;33659;42.672;23.354;2023-09-19T06:16:27;69134.13;;;20.05;60.80
11692;BME280;33659;42.672;23.354;2023-09-19T06:18:54;69069.13;;;20.13;60.97
11692;BME280;33659;42.672;23.354;2023-09-19T06:21:22;69161.38;;;20.30;61.01
11692;BME280;33659;42.672;23.354;2023-09-19T06:23:49;69159.16;;;20.28;60.90
11692;BME280;33659;42.672;23.354;2023-09-19T06:26:16;69161.38;;;20.30;60.49
11692;BME280;33659;42.672;23.354;2023-09-19T06:28:43;69169.00;;;20.37;60.86
11692;BME280;33659;42.672;23.354;2023-09-19T06:31:09;69163.06;;;20.34;60.50
11692;BME280;33659;42.672;23.354;2023-09-19T06:33:36;69177.19;;;20.45;60.62
11692;BME280;33659;42.672;23.354;2023-09-19T06:36:04;69182.63;;;20.50;60.53
11692;BME280;33659;42.672;23.354;2023-09-19T06:38:33;69183.19;;;20.50;60.94
11692;BME280;33659;42.672;23.354;2023-09-19T06:41:02;69195.19;;;20.62;60.08
11692;BME280;33659;42.672;23.354;2023-09-19T06:43:30;69198.44;;;20.65;60.21
11692;BME280;33659;42.672;23.354;2023-09-19T06:45:58;69137.13;;;20.74;59.56
11692;BME280;33659;42.672;23.354;2023-09-19T06:48:25;69139.91;;;20.79;59.76
11692;BME280;33659;42.672;23.354;2023-09-19T06:50:53;69220.25;;;20.85;59.61
11692;BME280;33659;42.672;23.354;2023-09-19T06:53:20;69225.34;;;20.95;59.18
11692;BME280;33659;42.672;23.354;2023-09-19T06:55:49;69236.16;;;21.02;58.53
11692;BME280;33659;42.672;23.354;2023-09-19T06:58:16;69238.31;;;21.04;58.84
11692;BME280;33659;42.672;23.354;2023-09-19T07:00:43;69239.31;;;21.03;58.52
11692;BME280;33659;42.672;23.354;2023-09-19T07:03:10;69231.03;;;20.93;59.18
11692;BME280;33659;42.672;23.354;2023-09-19T07:05:37;69223.59;;;20.91;59.58
11692;BME280;33659;42.672;23.354;2023-09-19T07:10:32;69234.41;;;20.98;59.06
11692;BME280;33659;42.672;23.354;2023-09-19T07:13:02;69238.78;;;21.02;58.83
11692;BME280;33659;42.672;23.354;2023-09-19T07:15:31;69238.78;;;21.02;58.50
11692;BME280;33659;42.672;23.354;2023-09-19T07:18:01;69235.50;;;20.99;58.91
11692;BME280;33659;42.672;23.354;2023-09-19T07:20:27;69241.50;;;21.05;58.31
11692;BME280;33659;42.672;23.354;2023-09-19T07:22:57;69240.41;;;21.04;58.18
11692;BME280;33659;42.672;23.354;2023-09-19T07:25:25;69237.69;;;21.01;58.16
11692;BME280;33659;42.672;23.354;2023-09-19T07:27:52;69242.69;;;21.08;57.75
11692;BME280;33659;42.672;23.354;2023-09-19T07:30:20;69221.97;;;20.89;56.90
11692;BME280;33659;42.672;23.354;2023-09-19T07:32:48;69226.78;;;20.91;57.80
11692;BME280;33659;42.672;23.354;2023-09-19T07:35:14;69154.53;;;20.90;57.51
11692;BME280;33659;42.672;23.354;2023-09-19T07:37:41;69217.53;;;20.82;57.78
11692;BME280;33659;42.672;23.354;2023-09-19T07:40:09;69131.13;;;20.68;58.69
11692;BME280;33659;42.672;23.354;2023-09-19T07:42:36;69130.13;;;20.70;58.83
11692;BME280;33659;42.672;23.354;2023-09-19T07:45:06;69213.81;;;20.81;58.94
11692;BME280;33659;42.672;23.354;2023-09-19T07:47:35;69158.91;;;20.94;58.79
11692;BME280;33659;42.672;23.354;2023-09-19T07:50:03;69164.34;;;20.99;58.56
11692;BME280;33659;42.672;23.354;2023-09-19T07:52:29;69229.59;;;20.96;58.47
11692;BME280;33659;42.672;23.354;2023-09-19T07:54:59;69231.16;;;20.95;58.75
11692;BME280;33659;42.672;23.354;2023-09-19T07:57:26;69245.78;;;21.06;58.22
11692;BME280;33659;42.672;23.354;2023-09-19T07:59:54;69259.50;;;21.22;57.92
11692;BME280;33659;42.672;23.354;2023-09-19T08:02:21;69267.81;;;21.32;57.14
11692;BME280;33659;42.672;23.354;2023-09-19T08:04:49;69277.53;;;21.39;57.13
11692;BME280;33659;42.672;23.354;2023-09-19T08:07:17;69294.97;;;21.55;56.92
11692;BME280;33659;42.672;23.354;2023-09-19T08:09:44;69235.72;;;21.66;56.95
11692;BME280;33659;42.672;23.354;2023-09-19T08:12:14;69319.59;;;21.80;56.31
11692;BME280;33659;42.672;23.354;2023-09-19T08:14:40;69327.69;;;21.85;56.27
11692;BME280;33659;42.672;23.354;2023-09-19T08:17:07;69316.69;;;21.73;56.56
11692;BME280;33659;42.672;23.354;2023-09-19T08:19:34;69313.53;;;21.72;56.42
11692;BME280;33659;42.672;23.354;2023-09-19T08:22:03;69314.59;;;21.73;56.09
11692;BME280;33659;42.672;23.354;2023-09-19T08:24:30;69215.75;;;21.52;56.40
11692;BME280;33659;42.672;23.354;2023-09-19T08:26:58;69301.50;;;21.61;56.28
11692;BME280;33659;42.672;23.354;2023-09-19T08:29:25;69272.63;;;21.34;56.70
11692;BME280;33659;42.672;23.354;2023-09-19T08:31:54;69274.78;;;21.36;57.44
11692;BME280;33659;42.672;23.354;2023-09-19T08:34:21;69244.78;;;21.08;57.86
11692;BME280;33659;42.672;23.354;2023-09-19T08:36:50;69230.59;;;20.95;58.39
11692;BME280;33659;42.672;23.354;2023-09-19T08:39:19;69237.16;;;21.01;58.78
11692;BME280;33659;42.672;23.354;2023-09-19T08:41:46;69254.50;;;21.15;58.47
11692;BME280;33659;42.672;23.354;2023-09-19T08:44:13;69197.59;;;21.30;58.41
11692;BME280;33659;42.672;23.354;2023-09-19T08:46:41;69280.78;;;21.42;57.91
11692;BME280;33659;42.672;23.354;2023-09-19T08:49:13;69229.28;;;21.62;57.64
11692;BME280;33659;42.672;23.354;2023-09-19T08:51:52;69317.97;;;21.79;56.60
11692;BME280;33659;42.672;23.354;2023-09-19T08:54:29;69245.53;;;21.75;56.70
11692;BME280;33659;42.672;23.354;2023-09-19T08:57:00;69318.97;;;21.77;57.07
11692;BME280;33659;42.672;23.354;2023-09-19T08:59:33;69323.97;;;21.84;56.72
11692;BME280;33659;42.672;23.354;2023-09-19T09:02:03;69264.59;;;21.93;56.50
11692;BME280;33659;42.672;23.354;2023-09-19T09:04:30;69338.06;;;21.95;56.51
11692;BME280;33659;42.672;23.354;2023-09-19T09:06:57;69348.44;;;22.05;56.64
11692;BME280;33659;42.672;23.354;2023-09-19T09:09:26;69339.72;;;21.97;55.73
11692;BME280;33659;42.672;23.354;2023-09-19T09:11:54;69252.53;;;21.79;56.15
11692;BME280;33659;42.672;23.354;2023-09-19T09:14:22;69230.81;;;21.61;56.63
11692;BME280;33659;42.672;23.354;2023-09-19T09:16:50;69226.44;;;21.57;57.16
11692;BME280;33659;42.672;23.354;2023-09-19T09:19:17;69286.31;;;21.49;56.95
11692;BME280;33659;42.672;23.354;2023-09-19T09:21:50;69203.75;;;21.41;57.23
11692;BME280;33659;42.672;23.354;2023-09-19T09:24:28;69205.75;;;21.38;57.20
11692;BME280;33659;42.672;23.354;2023-09-19T09:26:56;69287.78;;;21.46;57.58
11692;BME280;33659;42.672;23.354;2023-09-19T09:29:41;69300.44;;;21.60;57.42
11692;BME280;33659;42.672;23.354;2023-09-19T09:32:18;69321.16;;;21.79;57.24
11692;BME280;33659;42.672;23.354;2023-09-19T09:34:46;69347.88;;;22.04;56.84
11692;BME280;33659;42.672;23.354;2023-09-19T09:37:14;69375.81;;;22.33;55.82
11692;BME280;33659;42.672;23.354;2023-09-19T09:39:49;69390.47;;;22.44;54.90
11692;BME280;33659;42.672;23.354;2023-09-19T09:42:29;69387.19;;;22.41;53.90
11692;BME280;33659;42.672;23.354;2023-09-19T09:45:13;69389.38;;;22.43;54.43
11692;BME280;33659;42.672;23.354;2023-09-19T09:47:45;69401.94;;;22.55;53.56
11692;BME280;33659;42.672;23.354;2023-09-19T09:50:25;69407.38;;;22.60;53.50
11692;BME280;33659;42.672;23.354;2023-09-19T09:52:55;69362.19;;;22.84;53.30
11692;BME280;33659;42.672;23.354;2023-09-19T09:55:57;69362.31;;;22.87;52.97
11692;BME280;33659;42.672;23.354;2023-09-19T09:58:25;69437.44;;;22.88;53.46
11692;BME280;33659;42.672;23.354;2023-09-19T10:00:55;69379.69;;;23.01;53.89
11692;BME280;33659;42.672;23.354;2023-09-19T10:03:30;69394.88;;;23.12;52.63
11692;BME280;33659;42.672;23.354;2023-09-19T10:05:59;69407.94;;;23.24;52.66
11692;BME280;33659;42.672;23.354;2023-09-19T10:08:34;69484.38;;;23.32;51.96
11692;BME280;33659;42.672;23.354;2023-09-19T10:11:15;69399.75;;;23.17;52.27
11692;BME280;33659;42.672;23.354;2023-09-19T10:13:44;69377.47;;;22.98;52.93
11692;BME280;33659;42.672;23.354;2023-09-19T10:16:13;69431.31;;;22.80;53.17
11692;BME280;33659;42.672;23.354;2023-09-19T10:18:45;69359.38;;;22.79;53.27
11692;BME280;33659;42.672;23.354;2023-09-19T10:21:14;69422.13;;;22.74;53.44
11692;BME280;33659;42.672;23.354;2023-09-19T10:23:48;69426.94;;;22.76;54.17
11692;BME280;33659;42.672;23.354;2023-09-19T10:26:19;69432.50;;;22.83;53.63
11692;BME280;33659;42.672;23.354;2023-09-19T10:28:49;69436.75;;;22.85;53.45
11692;BME280;33659;42.672;23.354;2023-09-19T10:31:18;69449.88;;;22.97;53.53
11692;BME280;33659;42.672;23.354;2023-09-19T10:33:47;69383.94;;;23.02;52.54
11692;BME280;33659;42.672;23.354;2023-09-19T10:36:16;69446.69;;;22.96;52.65
11692;BME280;33659;42.672;23.354;2023-09-19T10:38:45;69374.16;;;22.93;52.93
11692;BME280;33659;42.672;23.354;2023-09-19T10:41:16;69363.81;;;22.86;52.98
11692;BME280;33659;42.672;23.354;2023-09-19T10:43:48;69436.22;;;22.84;53.70
11692;BME280;33659;42.672;23.354;2023-09-19T10:46:15;69444.53;;;22.94;53.57
11692;BME280;33659;42.672;23.354;2023-09-19T10:48:43;69460.34;;;23.09;53.29
11692;BME280;33659;42.672;23.354;2023-09-19T10:51:17;69403.13;;;23.22;52.51
11692;BME280;33659;42.672;23.354;2023-09-19T10:53:51;69422.22;;;23.40;52.63
11692;BME280;33659;42.672;23.354;2023-09-19T10:56:21;69500.75;;;23.47;52.56
11692;BME280;33659;42.672;23.354;2023-09-19T10:58:51;69435.94;;;23.56;51.41
11692;BME280;33659;42.672;23.354;2023-09-19T11:01:19;69443.41;;;23.58;51.38
11692;BME280;33659;42.672;23.354;2023-09-19T11:03:47;69443.97;;;23.58;51.55
11692;BME280;33659;42.672;23.354;2023-09-19T11:06:16;69438.66;;;23.58;51.43
11692;BME280;33659;42.672;23.354;2023-09-19T11:08:59;69436.88;;;23.51;51.35
11692;BME280;33659;42.672;23.354;2023-09-19T11:11:50;69503.41;;;23.47;51.83
11692;BME280;33659;42.672;23.354;2023-09-19T11:14:38;69499.13;;;23.45;51.81
11692;BME280;33659;42.672;23.354;2023-09-19T11:17:38;69434.13;;;23.49;51.71
11692;BME280;33659;42.672;23.354;2023-09-19T11:20:23;69440.69;;;23.55;51.47
11692;BME280;33659;42.672;23.354;2023-09-19T11:23:21;69520.88;;;23.63;51.80
11692;BME280;33659;42.672;23.354;2023-09-19T11:25:53;69450.13;;;23.69;51.79
11692;BME280;33659;42.672;23.354;2023-09-19T11:28:34;69530.25;;;23.74;51.50
11692;BME280;33659;42.672;23.354;2023-09-19T11:34:47;69546.03;;;23.87;51.48
11692;BME280;33659;42.672;23.354;2023-09-19T11:43:37;69598.03;;;24.38;49.57
11692;BME280;33659;42.672;23.354;2023-09-19T11:46:08;69536.28;;;24.47;49.51
11692;BME280;33659;42.672;23.354;2023-09-19T11:48:38;69533.72;;;24.49;49.05
11692;BME280;33659;42.672;23.354;2023-09-19T11:51:16;69540.03;;;24.48;49.09
11692;BME280;33659;42.672;23.354;2023-09-19T11:53:48;69621.44;;;24.57;49.90
11692;BME280;33659;42.672;23.354;2023-09-19T11:56:16;69539.50;;;24.47;50.56
11692;BME280;33659;42.672;23.354;2023-09-19T11:58:44;69567.47;;;24.78;49.76
11692;BME280;33659;42.672;23.354;2023-09-19T12:01:16;69651.03;;;24.87;49.45
11692;BME280;33659;42.672;23.354;2023-09-19T12:03:53;69667.25;;;24.97;50.02
11692;BME280;33659;42.672;23.354;2023-09-19T12:06:21;69680.94;;;25.10;48.78
11692;BME280;33659;42.672;23.354;2023-09-19T12:08:49;69619.75;;;25.22;48.43
11692;BME280;33659;42.672;23.354;2023-09-19T12:11:16;69645.50;;;25.49;47.61
11692;BME280;33659;42.672;23.354;2023-09-19T12:13:46;69653.78;;;25.59;46.99
11692;BME280;33659;42.672;23.354;2023-09-19T12:16:15;69712.75;;;25.42;46.68
11692;BME280;33659;42.672;23.354;2023-09-19T12:18:43;69673.88;;;25.73;47.01
11692;BME280;33659;42.672;23.354;2023-09-19T12:21:23;69701.19;;;25.98;46.72
11692;BME280;33659;42.672;23.354;2023-09-19T12:23:59;69736.38;;;26.38;45.91
11692;BME280;33659;42.672;23.354;2023-09-19T12:26:26;69780.44;;;26.72;46.34
11692;BME280;33659;42.672;23.354;2023-09-19T12:28:54;69812.31;;;27.07;44.38
11692;BME280;33659;42.672;23.354;2023-09-19T12:31:22;69846.06;;;27.33;44.15
11692;BME280;33659;42.672;23.354;2023-09-19T12:33:53;69863.97;;;27.65;42.21
11692;BME280;33659;42.672;23.354;2023-09-19T12:36:21;69880.56;;;27.68;42.15
11692;BME280;33659;42.672;23.354;2023-09-19T12:38:55;69886.00;;;27.70;42.15
11692;BME280;33659;42.672;23.354;2023-09-19T12:41:24;69890.31;;;27.92;42.04
11692;BME280;33659;42.672;23.354;2023-09-19T12:43:52;69909.25;;;28.02;41.67
11692;BME280;33659;42.672;23.354;2023-09-19T12:46:20;69930.09;;;28.24;40.98
11692;BME280;33659;42.672;23.354;2023-09-19T12:49:15;69946.97;;;28.35;40.75
11692;BME280;33659;42.672;23.354;2023-09-19T12:51:42;69964.25;;;28.43;40.71
11692;BME280;33659;42.672;23.354;2023-09-19T12:54:11;69979.56;;;28.57;40.38
11692;BME280;33659;42.672;23.354;2023-09-19T12:56:40;69976.91;;;28.57;40.39
11692;BME280;33659;42.672;23.354;2023-09-19T12:59:11;69973.44;;;28.47;40.18
11692;BME280;33659;42.672;23.354;2023-09-19T13:01:39;69941.63;;;28.35;40.49
11692;BME280;33659;42.672;23.354;2023-09-19T13:04:11;69949.06;;;28.34;40.81
11692;BME280;33659;42.672;23.354;2023-09-19T13:06:40;69971.38;;;28.50;41.10
11692;BME280;33659;42.672;23.354;2023-09-19T13:09:11;69963.50;;;28.55;40.88
11692;BME280;33659;42.672;23.354;2023-09-19T13:11:39;70040.66;;;28.47;40.99
11692;BME280;33659;42.672;23.354;2023-09-19T13:14:17;70036.22;;;28.41;41.36
11692;BME280;33659;42.672;23.354;2023-09-19T13:16:57;69973.00;;;28.51;40.53